sensor_id;sensor_type;location;lat;lon;timestamp;P1;durP1;ratioP1;P2;durP2;ratioP2
7503;SDS011;3793;48.136;11.536;2022-12-18T00:01:45;38.97;;;21.37;;
7503;SDS011;3793;48.136;11.536;2022-12-18T00:04:18;43.60;;;21.07;;
7503;SDS011;3793;48.136;11.536;2022-12-18T00:06:46;44.10;;;22.13;;
7503;SDS011;3793;48.136;11.536;2022-12-18T00:09:12;46.83;;;21.43;;
7503;SDS011;3793;48.136;11.536;2022-12-18T00:11:39;50.77;;;21.47;;
7503;SDS011;3793;48.136;11.536;2022-12-18T00:14:05;49.70;;;21.23;;
7503;SDS011;3793;48.136;11.536;2022-12-18T00:16:32;47.90;;;22.20;;
7503;SDS011;3793;48.136;11.536;2022-12-18T00:19:00;40.47;;;20.33;;
7503;SDS011;3793;48.136;11.536;2022-12-18T00:21:29;53.57;;;22.47;;
7503;SDS011;3793;48.136;11.536;2022-12-18T00:23:55;44.83;;;21.70;;
7503;SDS011;3793;48.136;11.536;2022-12-18T00:26:23;47.63;;;20.87;;
7503;SDS011;3793;48.136;11.536;2022-12-18T00:28:50;48.33;;;23.37;;
7503;SDS011;3793;48.136;11.536;2022-12-18T00:31:17;49.00;;;20.73;;
7503;SDS011;3793;48.136;11.536;2022-12-18T00:33:44;45.90;;;22.67;;
7503;SDS011;3793;48.136;11.536;2022-12-18T00:36:11;54.80;;;24.10;;
7503;SDS011;3793;48.136;11.536;2022-12-18T00:38:39;45.47;;;22.03;;
7503;SDS011;3793;48.136;11.536;2022-12-18T00:41:06;53.67;;;24.70;;
7503;SDS011;3793;48.136;11.536;2022-12-18T00:43:33;48.87;;;23.80;;
7503;SDS011;3793;48.136;11.536;2022-12-18T00:45:58;58.53;;;25.83;;
7503;SDS011;3793;48.136;11.536;2022-12-18T00:48:25;51.60;;;23.00;;
7503;SDS011;3793;48.136;11.536;2022-12-18T00:50:51;57.40;;;23.87;;
7503;SDS011;3793;48.136;11.536;2022-12-18T00:53:18;56.40;;;24.73;;
7503;SDS011;3793;48.136;11.536;2022-12-18T00:55:46;59.97;;;25.67;;
7503;SDS011;3793;48.136;11.536;2022-12-18T00:58:13;59.27;;;24.27;;
7503;SDS011;3793;48.136;11.536;2022-12-18T01:00:40;47.87;;;21.97;;
7503;SDS011;3793;48.136;11.536;2022-12-18T01:03:06;54.40;;;23.13;;
7503;SDS011;3793;48.136;11.536;2022-12-18T01:05:33;57.00;;;23.73;;
7503;SDS011;3793;48.136;11.536;2022-12-18T01:08:00;49.63;;;22.60;;
7503;SDS011;3793;48.136;11.536;2022-12-18T01:10:26;52.40;;;23.87;;
7503;SDS011;3793;48.136;11.536;2022-12-18T01:12:54;51.87;;;21.63;;
7503;SDS011;3793;48.136;11.536;2022-12-18T01:15:21;53.20;;;22.37;;
7503;SDS011;3793;48.136;11.536;2022-12-18T01:17:48;51.27;;;21.97;;
7503;SDS011;3793;48.136;11.536;2022-12-18T01:20:15;46.77;;;22.27;;
7503;SDS011;3793;48.136;11.536;2022-12-18T01:22:43;48.23;;;22.10;;
7503;SDS011;3793;48.136;11.536;2022-12-18T01:25:09;51.47;;;22.13;;
7503;SDS011;3793;48.136;11.536;2022-12-18T01:27:36;51.70;;;23.87;;
7503;SDS011;3793;48.136;11.536;2022-12-18T01:30:05;50.80;;;23.43;;
7503;SDS011;3793;48.136;11.536;2022-12-18T01:32:32;48.00;;;22.17;;
7503;SDS011;3793;48.136;11.536;2022-12-18T01:34:58;47.53;;;21.63;;
7503;SDS011;3793;48.136;11.536;2022-12-18T01:37:25;45.67;;;20.97;;
7503;SDS011;3793;48.136;11.536;2022-12-18T01:39:52;47.83;;;21.30;;
7503;SDS011;3793;48.136;11.536;2022-12-18T01:42:19;42.67;;;21.10;;
7503;SDS011;3793;48.136;11.536;2022-12-18T01:44:56;49.67;;;22.13;;
7503;SDS011;3793;48.136;11.536;2022-12-18T01:47:25;50.37;;;23.83;;
7503;SDS011;3793;48.136;11.536;2022-12-18T01:49:52;44.13;;;20.83;;
7503;SDS011;3793;48.136;11.536;2022-12-18T01:52:19;44.37;;;21.73;;
7503;SDS011;3793;48.136;11.536;2022-12-18T01:54:46;50.60;;;21.97;;
7503;SDS011;3793;48.136;11.536;2022-12-18T01:57:13;47.47;;;22.23;;
7503;SDS011;3793;48.136;11.536;2022-12-18T01:59:40;49.03;;;21.80;;
7503;SDS011;3793;48.136;11.536;2022-12-18T02:02:08;46.97;;;23.67;;
7503;SDS011;3793;48.136;11.536;2022-12-18T02:04:36;42.73;;;20.63;;
7503;SDS011;3793;48.136;11.536;2022-12-18T02:07:13;47.93;;;20.57;;
7503;SDS011;3793;48.136;11.536;2022-12-18T02:09:43;42.73;;;20.80;;
7503;SDS011;3793;48.136;11.536;2022-12-18T02:12:13;48.57;;;21.73;;
7503;SDS011;3793;48.136;11.536;2022-12-18T02:14:43;49.13;;;22.87;;
7503;SDS011;3793;48.136;11.536;2022-12-18T02:17:11;48.00;;;21.07;;
7503;SDS011;3793;48.136;11.536;2022-12-18T02:19:47;49.20;;;22.50;;
7503;SDS011;3793;48.136;11.536;2022-12-18T02:22:20;44.03;;;20.43;;
7503;SDS011;3793;48.136;11.536;2022-12-18T02:24:53;47.33;;;21.57;;
7503;SDS011;3793;48.136;11.536;2022-12-18T02:27:21;49.47;;;22.20;;
7503;SDS011;3793;48.136;11.536;2022-12-18T02:29:50;46.17;;;22.63;;
7503;SDS011;3793;48.136;11.536;2022-12-18T02:32:18;46.40;;;21.93;;
7503;SDS011;3793;48.136;11.536;2022-12-18T02:34:46;49.27;;;22.43;;
7503;SDS011;3793;48.136;11.536;2022-12-18T02:37:14;50.03;;;23.03;;
7503;SDS011;3793;48.136;11.536;2022-12-18T02:39:42;53.43;;;23.73;;
7503;SDS011;3793;48.136;11.536;2022-12-18T02:42:10;52.00;;;23.40;;
7503;SDS011;3793;48.136;11.536;2022-12-18T02:44:42;47.83;;;22.00;;
7503;SDS011;3793;48.136;11.536;2022-12-18T02:47:10;48.93;;;23.87;;
7503;SDS011;3793;48.136;11.536;2022-12-18T02:49:40;48.63;;;23.07;;
7503;SDS011;3793;48.136;11.536;2022-12-18T02:52:10;43.63;;;20.47;;
7503;SDS011;3793;48.136;11.536;2022-12-18T02:54:48;54.13;;;23.83;;
7503;SDS011;3793;48.136;11.536;2022-12-18T02:57:19;45.57;;;23.43;;
7503;SDS011;3793;48.136;11.536;2022-12-18T02:59:53;53.03;;;23.77;;
7503;SDS011;3793;48.136;11.536;2022-12-18T03:02:23;51.73;;;25.10;;
7503;SDS011;3793;48.136;11.536;2022-12-18T03:04:53;55.27;;;24.87;;
7503;SDS011;3793;48.136;11.536;2022-12-18T03:07:23;51.27;;;25.20;;
7503;SDS011;3793;48.136;11.536;2022-12-18T03:09:51;50.53;;;23.60;;
7503;SDS011;3793;48.136;11.536;2022-12-18T03:12:20;53.17;;;24.53;;
7503;SDS011;3793;48.136;11.536;2022-12-18T03:14:48;50.50;;;23.73;;
7503;SDS011;3793;48.136;11.536;2022-12-18T03:17:17;50.70;;;23.33;;
7503;SDS011;3793;48.136;11.536;2022-12-18T03:19:45;48.47;;;21.87;;
7503;SDS011;3793;48.136;11.536;2022-12-18T03:22:13;50.23;;;22.70;;
7503;SDS011;3793;48.136;11.536;2022-12-18T03:24:39;50.63;;;23.87;;
7503;SDS011;3793;48.136;11.536;2022-12-18T03:27:06;55.37;;;24.40;;
7503;SDS011;3793;48.136;11.536;2022-12-18T03:29:36;51.87;;;23.53;;
7503;SDS011;3793;48.136;11.536;2022-12-18T03:32:04;47.87;;;23.33;;
7503;SDS011;3793;48.136;11.536;2022-12-18T03:34:34;45.87;;;21.67;;
7503;SDS011;3793;48.136;11.536;2022-12-18T03:37:02;55.10;;;24.77;;
7503;SDS011;3793;48.136;11.536;2022-12-18T03:39:28;48.43;;;23.37;;
7503;SDS011;3793;48.136;11.536;2022-12-18T03:42:00;51.60;;;23.03;;
7503;SDS011;3793;48.136;11.536;2022-12-18T03:44:31;50.90;;;24.23;;
7503;SDS011;3793;48.136;11.536;2022-12-18T03:47:01;54.00;;;22.57;;
7503;SDS011;3793;48.136;11.536;2022-12-18T03:49:32;51.67;;;23.23;;
7503;SDS011;3793;48.136;11.536;2022-12-18T03:52:02;54.53;;;25.37;;
7503;SDS011;3793;48.136;11.536;2022-12-18T03:54:30;54.40;;;23.90;;
7503;SDS011;3793;48.136;11.536;2022-12-18T03:56:58;47.03;;;23.03;;
7503;SDS011;3793;48.136;11.536;2022-12-18T03:59:26;48.50;;;23.60;;
7503;SDS011;3793;48.136;11.536;2022-12-18T04:01:53;56.23;;;22.93;;
7503;SDS011;3793;48.136;11.536;2022-12-18T04:04:21;54.03;;;23.67;;
7503;SDS011;3793;48.136;11.536;2022-12-18T04:06:47;51.93;;;23.10;;
7503;SDS011;3793;48.136;11.536;2022-12-18T04:09:16;48.77;;;22.37;;
7503;SDS011;3793;48.136;11.536;2022-12-18T04:11:44;49.77;;;22.30;;
7503;SDS011;3793;48.136;11.536;2022-12-18T04:14:10;50.27;;;23.37;;
7503;SDS011;3793;48.136;11.536;2022-12-18T04:16:37;49.20;;;23.20;;
7503;SDS011;3793;48.136;11.536;2022-12-18T04:19:03;52.00;;;23.23;;
7503;SDS011;3793;48.136;11.536;2022-12-18T04:21:30;52.73;;;23.73;;
7503;SDS011;3793;48.136;11.536;2022-12-18T04:23:56;56.37;;;24.10;;
7503;SDS011;3793;48.136;11.536;2022-12-18T04:26:24;47.87;;;23.80;;
7503;SDS011;3793;48.136;11.536;2022-12-18T04:28:51;48.30;;;22.70;;
7503;SDS011;3793;48.136;11.536;2022-12-18T04:31:17;47.83;;;22.70;;
7503;SDS011;3793;48.136;11.536;2022-12-18T04:33:44;48.87;;;23.10;;
7503;SDS011;3793;48.136;11.536;2022-12-18T04:36:10;47.80;;;23.10;;
7503;SDS011;3793;48.136;11.536;2022-12-18T04:38:38;45.50;;;21.57;;
7503;SDS011;3793;48.136;11.536;2022-12-18T04:41:04;46.10;;;24.17;;
7503;SDS011;3793;48.136;11.536;2022-12-18T04:43:32;48.33;;;23.30;;
7503;SDS011;3793;48.136;11.536;2022-12-18T04:46:02;50.30;;;24.57;;
7503;SDS011;3793;48.136;11.536;2022-12-18T04:48:29;50.13;;;22.07;;
7503;SDS011;3793;48.136;11.536;2022-12-18T04:50:56;47.33;;;23.17;;
7503;SDS011;3793;48.136;11.536;2022-12-18T04:53:22;46.13;;;21.37;;
7503;SDS011;3793;48.136;11.536;2022-12-18T04:55:49;45.33;;;22.53;;
7503;SDS011;3793;48.136;11.536;2022-12-18T04:58:15;46.63;;;22.77;;
7503;SDS011;3793;48.136;11.536;2022-12-18T05:00:43;41.80;;;20.07;;
7503;SDS011;3793;48.136;11.536;2022-12-18T05:03:10;44.20;;;21.50;;
7503;SDS011;3793;48.136;11.536;2022-12-18T05:05:36;46.43;;;22.47;;
7503;SDS011;3793;48.136;11.536;2022-12-18T05:08:03;47.03;;;21.40;;
7503;SDS011;3793;48.136;11.536;2022-12-18T05:10:30;43.13;;;21.17;;
7503;SDS011;3793;48.136;11.536;2022-12-18T05:12:56;43.17;;;20.47;;
7503;SDS011;3793;48.136;11.536;2022-12-18T05:15:26;45.13;;;21.77;;
7503;SDS011;3793;48.136;11.536;2022-12-18T05:17:54;44.47;;;20.10;;
7503;SDS011;3793;48.136;11.536;2022-12-18T05:20:21;46.73;;;21.93;;
7503;SDS011;3793;48.136;11.536;2022-12-18T05:22:48;46.10;;;22.50;;
7503;SDS011;3793;48.136;11.536;2022-12-18T05:25:14;42.57;;;21.40;;
7503;SDS011;3793;48.136;11.536;2022-12-18T05:27:41;40.97;;;19.13;;
7503;SDS011;3793;48.136;11.536;2022-12-18T05:30:08;39.53;;;19.93;;
7503;SDS011;3793;48.136;11.536;2022-12-18T05:32:34;41.10;;;20.07;;
7503;SDS011;3793;48.136;11.536;2022-12-18T05:35:03;38.77;;;19.27;;
7503;SDS011;3793;48.136;11.536;2022-12-18T05:37:29;34.10;;;18.67;;
7503;SDS011;3793;48.136;11.536;2022-12-18T05:39:56;41.20;;;20.43;;
7503;SDS011;3793;48.136;11.536;2022-12-18T05:42:22;39.60;;;21.07;;
7503;SDS011;3793;48.136;11.536;2022-12-18T05:44:49;39.97;;;19.50;;
7503;SDS011;3793;48.136;11.536;2022-12-18T05:47:15;43.43;;;20.67;;
7503;SDS011;3793;48.136;11.536;2022-12-18T05:49:42;41.83;;;20.50;;
7503;SDS011;3793;48.136;11.536;2022-12-18T05:52:10;37.77;;;19.80;;
7503;SDS011;3793;48.136;11.536;2022-12-18T05:54:36;41.77;;;20.17;;
7503;SDS011;3793;48.136;11.536;2022-12-18T05:57:04;37.10;;;19.33;;
7503;SDS011;3793;48.136;11.536;2022-12-18T05:59:30;38.80;;;18.10;;
7503;SDS011;3793;48.136;11.536;2022-12-18T06:01:57;38.17;;;19.97;;
7503;SDS011;3793;48.136;11.536;2022-12-18T06:04:23;38.33;;;20.13;;
7503;SDS011;3793;48.136;11.536;2022-12-18T06:06:50;38.37;;;18.77;;
7503;SDS011;3793;48.136;11.536;2022-12-18T06:09:18;40.70;;;19.17;;
7503;SDS011;3793;48.136;11.536;2022-12-18T06:11:44;40.60;;;18.17;;
7503;SDS011;3793;48.136;11.536;2022-12-18T06:14:11;40.50;;;19.70;;
7503;SDS011;3793;48.136;11.536;2022-12-18T06:16:37;38.30;;;17.83;;
7503;SDS011;3793;48.136;11.536;2022-12-18T06:19:04;38.53;;;19.43;;
7503;SDS011;3793;48.136;11.536;2022-12-18T06:21:31;39.80;;;18.77;;
7503;SDS011;3793;48.136;11.536;2022-12-18T06:23:58;37.87;;;19.57;;
7503;SDS011;3793;48.136;11.536;2022-12-18T06:26:26;34.73;;;18.00;;
7503;SDS011;3793;48.136;11.536;2022-12-18T06:28:52;35.37;;;17.97;;
7503;SDS011;3793;48.136;11.536;2022-12-18T06:31:19;41.83;;;19.13;;
7503;SDS011;3793;48.136;11.536;2022-12-18T06:33:45;42.10;;;20.27;;
7503;SDS011;3793;48.136;11.536;2022-12-18T06:36:12;42.33;;;19.07;;
7503;SDS011;3793;48.136;11.536;2022-12-18T06:38:39;39.43;;;19.50;;
7503;SDS011;3793;48.136;11.536;2022-12-18T06:41:06;45.80;;;20.53;;
7503;SDS011;3793;48.136;11.536;2022-12-18T06:43:34;45.47;;;20.10;;
7503;SDS011;3793;48.136;11.536;2022-12-18T06:46:01;37.93;;;19.57;;
7503;SDS011;3793;48.136;11.536;2022-12-18T06:48:28;38.90;;;19.23;;
7503;SDS011;3793;48.136;11.536;2022-12-18T06:50:54;38.90;;;19.70;;
7503;SDS011;3793;48.136;11.536;2022-12-18T06:53:21;37.60;;;19.33;;
7503;SDS011;3793;48.136;11.536;2022-12-18T06:55:47;37.23;;;18.87;;
7503;SDS011;3793;48.136;11.536;2022-12-18T06:58:14;36.90;;;19.80;;
7503;SDS011;3793;48.136;11.536;2022-12-18T07:00:42;35.33;;;18.67;;
7503;SDS011;3793;48.136;11.536;2022-12-18T07:03:09;37.67;;;19.33;;
7503;SDS011;3793;48.136;11.536;2022-12-18T07:05:39;40.20;;;19.17;;
7503;SDS011;3793;48.136;11.536;2022-12-18T07:08:06;39.97;;;19.97;;
7503;SDS011;3793;48.136;11.536;2022-12-18T07:10:32;34.90;;;18.73;;
7503;SDS011;3793;48.136;11.536;2022-12-18T07:12:59;35.70;;;18.77;;
7503;SDS011;3793;48.136;11.536;2022-12-18T07:15:25;38.17;;;19.33;;
7503;SDS011;3793;48.136;11.536;2022-12-18T07:17:53;35.30;;;17.37;;
7503;SDS011;3793;48.136;11.536;2022-12-18T07:20:20;35.90;;;17.90;;
7503;SDS011;3793;48.136;11.536;2022-12-18T07:22:46;36.03;;;17.77;;
7503;SDS011;3793;48.136;11.536;2022-12-18T07:25:13;37.33;;;18.60;;
7503;SDS011;3793;48.136;11.536;2022-12-18T07:27:39;37.83;;;19.20;;
7503;SDS011;3793;48.136;11.536;2022-12-18T07:30:06;35.53;;;18.47;;
7503;SDS011;3793;48.136;11.536;2022-12-18T07:32:33;35.27;;;17.57;;
7503;SDS011;3793;48.136;11.536;2022-12-18T07:35:01;38.90;;;17.50;;
7503;SDS011;3793;48.136;11.536;2022-12-18T07:37:28;35.63;;;18.27;;
7503;SDS011;3793;48.136;11.536;2022-12-18T07:39:54;36.60;;;16.97;;
7503;SDS011;3793;48.136;11.536;2022-12-18T07:42:21;37.87;;;18.73;;
7503;SDS011;3793;48.136;11.536;2022-12-18T07:44:56;35.17;;;17.27;;
7503;SDS011;3793;48.136;11.536;2022-12-18T07:47:23;30.80;;;16.43;;
7503;SDS011;3793;48.136;11.536;2022-12-18T07:49:49;31.40;;;15.97;;
7503;SDS011;3793;48.136;11.536;2022-12-18T07:52:17;36.57;;;18.83;;
7503;SDS011;3793;48.136;11.536;2022-12-18T07:54:44;35.83;;;17.70;;
7503;SDS011;3793;48.136;11.536;2022-12-18T07:57:11;36.53;;;19.30;;
7503;SDS011;3793;48.136;11.536;2022-12-18T07:59:40;36.60;;;18.23;;
7503;SDS011;3793;48.136;11.536;2022-12-18T08:02:06;31.20;;;16.03;;
7503;SDS011;3793;48.136;11.536;2022-12-18T08:04:36;36.27;;;18.30;;
7503;SDS011;3793;48.136;11.536;2022-12-18T08:07:02;39.33;;;18.13;;
7503;SDS011;3793;48.136;11.536;2022-12-18T08:09:30;37.67;;;18.93;;
7503;SDS011;3793;48.136;11.536;2022-12-18T08:11:57;35.67;;;17.53;;
7503;SDS011;3793;48.136;11.536;2022-12-18T08:14:23;30.50;;;17.17;;
7503;SDS011;3793;48.136;11.536;2022-12-18T08:16:50;37.27;;;18.23;;
7503;SDS011;3793;48.136;11.536;2022-12-18T08:19:16;42.57;;;18.43;;
7503;SDS011;3793;48.136;11.536;2022-12-18T08:21:43;41.20;;;20.27;;
7503;SDS011;3793;48.136;11.536;2022-12-18T08:24:10;42.23;;;20.27;;
7503;SDS011;3793;48.136;11.536;2022-12-18T08:26:38;35.17;;;18.63;;
7503;SDS011;3793;48.136;11.536;2022-12-18T08:29:05;34.03;;;17.93;;
7503;SDS011;3793;48.136;11.536;2022-12-18T08:31:31;34.37;;;16.67;;
7503;SDS011;3793;48.136;11.536;2022-12-18T08:33:58;32.20;;;17.03;;
7503;SDS011;3793;48.136;11.536;2022-12-18T08:36:24;32.77;;;17.23;;
7503;SDS011;3793;48.136;11.536;2022-12-18T08:38:51;35.33;;;18.00;;
7503;SDS011;3793;48.136;11.536;2022-12-18T08:41:18;33.20;;;16.97;;
7503;SDS011;3793;48.136;11.536;2022-12-18T08:43:46;33.70;;;17.70;;
7503;SDS011;3793;48.136;11.536;2022-12-18T08:46:32;32.87;;;17.63;;
7503;SDS011;3793;48.136;11.536;2022-12-18T08:48:59;33.33;;;16.40;;
7503;SDS011;3793;48.136;11.536;2022-12-18T08:51:25;35.73;;;18.27;;
7503;SDS011;3793;48.136;11.536;2022-12-18T08:53:52;31.00;;;16.63;;
7503;SDS011;3793;48.136;11.536;2022-12-18T08:56:18;32.03;;;17.57;;
7503;SDS011;3793;48.136;11.536;2022-12-18T08:58:46;30.87;;;16.60;;
7503;SDS011;3793;48.136;11.536;2022-12-18T09:01:13;33.77;;;17.73;;
7503;SDS011;3793;48.136;11.536;2022-12-18T09:03:40;38.13;;;18.27;;
7503;SDS011;3793;48.136;11.536;2022-12-18T09:06:12;33.37;;;16.67;;
7503;SDS011;3793;48.136;11.536;2022-12-18T09:08:39;34.90;;;17.00;;
7503;SDS011;3793;48.136;11.536;2022-12-18T09:11:09;32.53;;;16.83;;
7503;SDS011;3793;48.136;11.536;2022-12-18T09:13:38;28.37;;;16.20;;
7503;SDS011;3793;48.136;11.536;2022-12-18T09:16:07;32.23;;;16.67;;
7503;SDS011;3793;48.136;11.536;2022-12-18T09:18:34;34.43;;;17.30;;
7503;SDS011;3793;48.136;11.536;2022-12-18T09:21:06;28.13;;;16.13;;
7503;SDS011;3793;48.136;11.536;2022-12-18T09:23:33;31.57;;;16.37;;
7503;SDS011;3793;48.136;11.536;2022-12-18T09:25:59;31.03;;;16.63;;
7503;SDS011;3793;48.136;11.536;2022-12-18T09:28:26;33.07;;;15.93;;
7503;SDS011;3793;48.136;11.536;2022-12-18T09:30:53;30.93;;;16.20;;
7503;SDS011;3793;48.136;11.536;2022-12-18T09:33:21;30.83;;;15.93;;
7503;SDS011;3793;48.136;11.536;2022-12-18T09:35:47;30.80;;;16.30;;
7503;SDS011;3793;48.136;11.536;2022-12-18T09:38:14;30.47;;;15.83;;
7503;SDS011;3793;48.136;11.536;2022-12-18T09:40:43;34.20;;;16.50;;
7503;SDS011;3793;48.136;11.536;2022-12-18T09:43:13;34.27;;;16.57;;
7503;SDS011;3793;48.136;11.536;2022-12-18T09:45:42;31.97;;;16.20;;
7503;SDS011;3793;48.136;11.536;2022-12-18T09:48:10;31.03;;;15.83;;
7503;SDS011;3793;48.136;11.536;2022-12-18T09:50:41;28.03;;;15.20;;
7503;SDS011;3793;48.136;11.536;2022-12-18T09:53:10;33.90;;;15.50;;
7503;SDS011;3793;48.136;11.536;2022-12-18T09:55:40;29.10;;;15.80;;
7503;SDS011;3793;48.136;11.536;2022-12-18T09:58:12;34.73;;;15.87;;
7503;SDS011;3793;48.136;11.536;2022-12-18T10:00:42;30.53;;;15.97;;
7503;SDS011;3793;48.136;11.536;2022-12-18T10:03:10;28.80;;;16.03;;
7503;SDS011;3793;48.136;11.536;2022-12-18T10:05:37;30.63;;;15.37;;
7503;SDS011;3793;48.136;11.536;2022-12-18T10:08:10;29.70;;;15.37;;
7503;SDS011;3793;48.136;11.536;2022-12-18T10:10:40;29.50;;;15.70;;
7503;SDS011;3793;48.136;11.536;2022-12-18T10:13:14;31.87;;;16.07;;
7503;SDS011;3793;48.136;11.536;2022-12-18T10:15:45;32.43;;;16.87;;
7503;SDS011;3793;48.136;11.536;2022-12-18T10:18:19;29.10;;;15.03;;
7503;SDS011;3793;48.136;11.536;2022-12-18T10:20:50;35.47;;;17.33;;
7503;SDS011;3793;48.136;11.536;2022-12-18T10:23:20;29.87;;;16.13;;
7503;SDS011;3793;48.136;11.536;2022-12-18T10:25:52;33.33;;;16.73;;
7503;SDS011;3793;48.136;11.536;2022-12-18T10:28:21;28.90;;;15.33;;
7503;SDS011;3793;48.136;11.536;2022-12-18T10:30:49;32.50;;;16.97;;
7503;SDS011;3793;48.136;11.536;2022-12-18T10:33:17;34.43;;;17.57;;
7503;SDS011;3793;48.136;11.536;2022-12-18T10:35:43;35.60;;;17.20;;
7503;SDS011;3793;48.136;11.536;2022-12-18T10:38:22;31.57;;;15.73;;
7503;SDS011;3793;48.136;11.536;2022-12-18T10:40:50;34.90;;;16.57;;
7503;SDS011;3793;48.136;11.536;2022-12-18T10:43:19;33.13;;;15.63;;
7503;SDS011;3793;48.136;11.536;2022-12-18T10:45:58;30.07;;;16.17;;
7503;SDS011;3793;48.136;11.536;2022-12-18T10:48:25;30.17;;;15.97;;
7503;SDS011;3793;48.136;11.536;2022-12-18T10:50:52;33.23;;;16.37;;
7503;SDS011;3793;48.136;11.536;2022-12-18T10:53:20;35.07;;;16.67;;
7503;SDS011;3793;48.136;11.536;2022-12-18T10:55:49;34.33;;;16.87;;
7503;SDS011;3793;48.136;11.536;2022-12-18T10:58:22;34.77;;;16.30;;
7503;SDS011;3793;48.136;11.536;2022-12-18T11:01:01;30.07;;;16.93;;
7503;SDS011;3793;48.136;11.536;2022-12-18T11:03:29;29.90;;;16.83;;
7503;SDS011;3793;48.136;11.536;2022-12-18T11:06:04;27.80;;;15.87;;
7503;SDS011;3793;48.136;11.536;2022-12-18T11:08:30;33.40;;;17.50;;
7503;SDS011;3793;48.136;11.536;2022-12-18T11:11:00;31.17;;;17.13;;
7503;SDS011;3793;48.136;11.536;2022-12-18T11:13:42;34.47;;;16.87;;
7503;SDS011;3793;48.136;11.536;2022-12-18T11:16:18;31.43;;;16.77;;
7503;SDS011;3793;48.136;11.536;2022-12-18T11:18:45;26.97;;;15.30;;
7503;SDS011;3793;48.136;11.536;2022-12-18T11:21:14;29.73;;;15.93;;
7503;SDS011;3793;48.136;11.536;2022-12-18T11:23:44;32.27;;;17.27;;
7503;SDS011;3793;48.136;11.536;2022-12-18T11:32:34;31.73;;;15.60;;
7503;SDS011;3793;48.136;11.536;2022-12-18T11:35:15;31.47;;;16.97;;
7503;SDS011;3793;48.136;11.536;2022-12-18T11:40:52;28.53;;;15.23;;
7503;SDS011;3793;48.136;11.536;2022-12-18T11:43:27;32.17;;;15.80;;
7503;SDS011;3793;48.136;11.536;2022-12-18T11:46:01;31.07;;;15.80;;
7503;SDS011;3793;48.136;11.536;2022-12-18T11:48:34;35.67;;;17.67;;
7503;SDS011;3793;48.136;11.536;2022-12-18T11:51:09;25.70;;;14.87;;
7503;SDS011;3793;48.136;11.536;2022-12-18T11:53:40;29.13;;;15.00;;
7503;SDS011;3793;48.136;11.536;2022-12-18T11:56:12;28.30;;;15.43;;
7503;SDS011;3793;48.136;11.536;2022-12-18T11:58:47;27.13;;;15.10;;
7503;SDS011;3793;48.136;11.536;2022-12-18T12:01:18;30.40;;;15.97;;
7503;SDS011;3793;48.136;11.536;2022-12-18T12:03:58;31.27;;;15.87;;
7503;SDS011;3793;48.136;11.536;2022-12-18T12:06:55;26.17;;;15.10;;
7503;SDS011;3793;48.136;11.536;2022-12-18T12:09:39;30.90;;;16.83;;
7503;SDS011;3793;48.136;11.536;2022-12-18T12:12:39;33.17;;;16.70;;
7503;SDS011;3793;48.136;11.536;2022-12-18T12:15:20;30.10;;;15.97;;
7503;SDS011;3793;48.136;11.536;2022-12-18T12:17:50;31.53;;;16.80;;
7503;SDS011;3793;48.136;11.536;2022-12-18T12:20:20;26.43;;;14.60;;
7503;SDS011;3793;48.136;11.536;2022-12-18T12:22:50;27.33;;;15.27;;
7503;SDS011;3793;48.136;11.536;2022-12-18T12:28:24;28.43;;;15.90;;
7503;SDS011;3793;48.136;11.536;2022-12-18T12:31:08;25.37;;;14.73;;
7503;SDS011;3793;48.136;11.536;2022-12-18T12:33:40;29.97;;;16.23;;
7503;SDS011;3793;48.136;11.536;2022-12-18T12:36:17;33.27;;;17.57;;
7503;SDS011;3793;48.136;11.536;2022-12-18T12:38:49;25.20;;;14.70;;
7503;SDS011;3793;48.136;11.536;2022-12-18T12:41:18;27.50;;;14.83;;
7503;SDS011;3793;48.136;11.536;2022-12-18T12:44:04;25.13;;;15.17;;
7503;SDS011;3793;48.136;11.536;2022-12-18T12:46:34;28.43;;;14.80;;
7503;SDS011;3793;48.136;11.536;2022-12-18T12:49:02;25.07;;;16.03;;
7503;SDS011;3793;48.136;11.536;2022-12-18T12:51:34;28.63;;;14.73;;
7503;SDS011;3793;48.136;11.536;2022-12-18T12:54:01;25.03;;;14.93;;
7503;SDS011;3793;48.136;11.536;2022-12-18T12:56:32;27.30;;;15.17;;
7503;SDS011;3793;48.136;11.536;2022-12-18T12:59:18;27.73;;;15.10;;
7503;SDS011;3793;48.136;11.536;2022-12-18T13:02:02;24.27;;;13.97;;
7503;SDS011;3793;48.136;11.536;2022-12-18T13:04:34;30.23;;;15.90;;
7503;SDS011;3793;48.136;11.536;2022-12-18T13:07:06;26.83;;;14.83;;
7503;SDS011;3793;48.136;11.536;2022-12-18T13:10:12;24.27;;;13.50;;
7503;SDS011;3793;48.136;11.536;2022-12-18T13:12:37;25.77;;;13.43;;
7503;SDS011;3793;48.136;11.536;2022-12-18T13:15:26;25.00;;;13.10;;
7503;SDS011;3793;48.136;11.536;2022-12-18T13:20:45;25.13;;;14.27;;
7503;SDS011;3793;48.136;11.536;2022-12-18T13:23:30;24.67;;;14.07;;
7503;SDS011;3793;48.136;11.536;2022-12-18T13:25:58;27.40;;;15.87;;
7503;SDS011;3793;48.136;11.536;2022-12-18T13:31:07;28.43;;;14.70;;
7503;SDS011;3793;48.136;11.536;2022-12-18T13:33:39;27.20;;;14.63;;
7503;SDS011;3793;48.136;11.536;2022-12-18T13:36:27;26.50;;;14.27;;
7503;SDS011;3793;48.136;11.536;2022-12-18T13:39:20;30.90;;;15.50;;
7503;SDS011;3793;48.136;11.536;2022-12-18T13:41:48;31.10;;;14.17;;
7503;SDS011;3793;48.136;11.536;2022-12-18T13:44:22;28.07;;;15.03;;
7503;SDS011;3793;48.136;11.536;2022-12-18T13:46:50;27.20;;;14.53;;
7503;SDS011;3793;48.136;11.536;2022-12-18T13:49:43;30.83;;;15.83;;
7503;SDS011;3793;48.136;11.536;2022-12-18T13:52:15;30.50;;;15.07;;
7503;SDS011;3793;48.136;11.536;2022-12-18T14:00:25;23.60;;;14.10;;
7503;SDS011;3793;48.136;11.536;2022-12-18T14:02:57;30.10;;;15.80;;
7503;SDS011;3793;48.136;11.536;2022-12-18T14:05:27;26.87;;;14.60;;
7503;SDS011;3793;48.136;11.536;2022-12-18T14:07:59;29.97;;;14.40;;
7503;SDS011;3793;48.136;11.536;2022-12-18T14:10:27;29.33;;;16.20;;
7503;SDS011;3793;48.136;11.536;2022-12-18T14:12:57;30.43;;;15.80;;
7503;SDS011;3793;48.136;11.536;2022-12-18T14:18:43;30.27;;;15.80;;
7503;SDS011;3793;48.136;11.536;2022-12-18T14:21:20;28.43;;;14.60;;
7503;SDS011;3793;48.136;11.536;2022-12-18T14:23:47;33.00;;;15.73;;
7503;SDS011;3793;48.136;11.536;2022-12-18T14:26:21;28.27;;;14.47;;
7503;SDS011;3793;48.136;11.536;2022-12-18T14:28:48;30.73;;;14.67;;
7503;SDS011;3793;48.136;11.536;2022-12-18T14:31:50;32.40;;;17.03;;
7503;SDS011;3793;48.136;11.536;2022-12-18T14:34:10;32.63;;;17.13;;
7503;SDS011;3793;48.136;11.536;2022-12-18T14:37:01;32.23;;;15.50;;
7503;SDS011;3793;48.136;11.536;2022-12-18T14:39:37;27.97;;;15.10;;
7503;SDS011;3793;48.136;11.536;2022-12-18T14:42:09;32.37;;;17.07;;
7503;SDS011;3793;48.136;11.536;2022-12-18T14:44:38;28.13;;;15.60;;
7503;SDS011;3793;48.136;11.536;2022-12-18T14:47:12;30.90;;;15.57;;
7503;SDS011;3793;48.136;11.536;2022-12-18T14:49:41;32.10;;;16.00;;
7503;SDS011;3793;48.136;11.536;2022-12-18T14:52:13;34.07;;;16.70;;
7503;SDS011;3793;48.136;11.536;2022-12-18T14:54:45;27.47;;;15.70;;
7503;SDS011;3793;48.136;11.536;2022-12-18T14:57:14;31.43;;;15.03;;
7503;SDS011;3793;48.136;11.536;2022-12-18T14:59:44;28.83;;;15.13;;
7503;SDS011;3793;48.136;11.536;2022-12-18T15:02:12;27.77;;;15.73;;
7503;SDS011;3793;48.136;11.536;2022-12-18T15:07:42;34.33;;;15.70;;
7503;SDS011;3793;48.136;11.536;2022-12-18T15:10:10;30.67;;;15.83;;
7503;SDS011;3793;48.136;11.536;2022-12-18T15:12:39;32.43;;;16.10;;
7503;SDS011;3793;48.136;11.536;2022-12-18T15:17:56;31.03;;;16.73;;
7503;SDS011;3793;48.136;11.536;2022-12-18T15:20:40;34.63;;;16.40;;